createdAt,value
2023-01-24T00:00:22.903Z,102006.41
2023-01-24T00:03:25.811Z,102005.44
2023-01-24T00:06:28.680Z,102011.09
2023-01-24T00:09:31.684Z,102014.56
2023-01-24T00:12:34.487Z,102009.56
2023-01-24T00:15:37.318Z,102013.44
2023-01-24T00:18:40.313Z,102011.06
2023-01-24T00:21:43.180Z,102013.69
2023-01-24T00:24:47.217Z,102020.88
2023-01-24T00:27:50.372Z,102013.56
2023-01-24T00:30:54.200Z,102032.66
2023-01-24T00:33:57.233Z,102038.97
2023-01-24T00:37:00.149Z,102037.59
2023-01-24T00:40:03.058Z,102035.09
2023-01-24T00:43:06.130Z,102043.69
2023-01-24T00:46:10.483Z,102046.75
2023-01-24T00:49:13.917Z,102043.16
2023-01-24T00:52:17.930Z,102053.66
2023-01-24T00:55:21.072Z,102045.78
2023-01-24T00:58:24.199Z,102047.03
2023-01-24T01:01:27.144Z,102050.22
2023-01-24T01:04:30.013Z,102057.44
2023-01-24T01:07:33.174Z,102055.19
2023-01-24T01:10:36.259Z,102053.41
2023-01-24T01:13:39.295Z,102057.94
2023-01-24T01:16:42.491Z,102063.63
2023-01-24T01:19:45.610Z,102060.19
2023-01-24T01:22:48.511Z,102065.16
2023-01-24T01:25:51.295Z,102063.19
2023-01-24T01:28:54.507Z,102064.31
2023-01-24T01:31:57.510Z,102076.97
2023-01-24T01:35:00.546Z,102064.84
2023-01-24T01:38:03.452Z,102068.69
2023-01-24T01:41:06.843Z,102069.63
2023-01-24T01:44:39.757Z,102071.44
2023-01-24T01:47:42.521Z,102078.84
2023-01-24T01:51:06.444Z,102079.69
2023-01-24T01:54:24.103Z,102075.16
2023-01-24T01:57:30.560Z,102072.81
2023-01-24T02:00:36.446Z,102072.09
2023-01-24T02:03:50.692Z,102073.44
2023-01-24T02:06:53.471Z,102076.66
2023-01-24T02:09:57.799Z,102071.78
2023-01-24T02:13:00.671Z,102072.75
2023-01-24T02:16:03.561Z,102065.69
2023-01-24T02:19:13.053Z,102081.84
2023-01-24T02:22:57.541Z,102089.97
2023-01-24T02:26:15.841Z,102085.69
2023-01-24T02:29:18.749Z,102083.19
2023-01-24T02:32:21.729Z,102084.00
2023-01-24T02:35:31.931Z,102086.78
2023-01-24T02:38:35.071Z,102084.25
2023-01-24T02:41:46.675Z,102087.84
2023-01-24T02:45:15.877Z,102081.78
2023-01-24T02:48:19.517Z,102085.47
2023-01-24T02:51:41.061Z,102087.28
2023-01-24T02:54:43.785Z,102080.38
2023-01-24T02:58:05.159Z,102080.81
2023-01-24T03:01:08.039Z,102076.31
2023-01-24T03:04:12.997Z,102081.84
2023-01-24T03:07:17.303Z,102094.66
2023-01-24T03:10:27.533Z,102090.63
2023-01-24T03:13:49.217Z,102094.06
2023-01-24T03:17:10.629Z,102097.53
2023-01-24T03:20:33.141Z,102095.97
2023-01-24T03:23:54.940Z,102097.84
2023-01-24T03:27:16.365Z,102100.22
2023-01-24T03:30:37.832Z,102103.69
2023-01-24T03:33:59.557Z,102103.47
2023-01-24T03:37:03.825Z,102104.88
2023-01-24T03:40:12.178Z,102107.06
2023-01-24T03:43:15.754Z,102106.06
2023-01-24T03:46:18.638Z,102112.00
2023-01-24T03:49:45.083Z,102106.28
2023-01-24T03:52:47.903Z,102100.53
2023-01-24T03:55:57.003Z,102115.16
2023-01-24T03:59:01.221Z,102106.94
2023-01-24T04:02:07.573Z,102104.31
2023-01-24T04:05:14.883Z,102099.88
2023-01-24T04:08:20.149Z,102101.03
2023-01-24T04:11:24.593Z,102102.81
2023-01-24T04:14:33.260Z,102096.78
2023-01-24T04:17:43.371Z,102101.75
2023-01-24T04:20:51.790Z,102113.78
2023-01-24T04:23:55.293Z,102110.31
2023-01-24T04:26:58.549Z,102097.56
2023-01-24T04:30:12.956Z,102091.13
2023-01-24T04:33:17.165Z,102106.09
2023-01-24T04:36:20.001Z,102108.47
2023-01-24T04:39:23.957Z,102115.53
2023-01-24T04:42:46.923Z,102118.06
2023-01-24T04:45:49.735Z,102115.13
2023-01-24T04:48:56.111Z,102117.75
2023-01-24T04:52:13.544Z,102120.63
2023-01-24T04:55:36.830Z,102118.94
2023-01-24T04:58:39.772Z,102113.22
2023-01-24T05:01:42.869Z,102118.47
2023-01-24T05:05:00.687Z,102120.25
2023-01-24T05:08:03.534Z,102121.06
2023-01-24T05:11:06.520Z,102127.66
2023-01-24T05:14:15.460Z,102131.47
2023-01-24T05:17:18.438Z,102138.50
2023-01-24T05:20:21.728Z,102144.03
2023-01-24T05:23:24.622Z,102147.84
2023-01-24T05:26:28.554Z,102145.22
2023-01-24T05:29:31.769Z,102149.13
2023-01-24T05:32:39.255Z,102148.16
2023-01-24T05:35:44.504Z,102153.09
2023-01-24T05:38:48.090Z,102159.66
2023-01-24T05:41:51.738Z,102155.00
2023-01-24T05:44:57.497Z,102159.53
2023-01-24T05:48:00.429Z,102167.63
2023-01-24T05:51:10.005Z,102170.00
2023-01-24T05:54:13.109Z,102182.16
2023-01-24T05:57:37.730Z,102174.53
2023-01-24T06:00:46.579Z,102175.34
2023-01-24T06:04:06.980Z,102181.06
2023-01-24T06:07:09.773Z,102187.84
2023-01-24T06:10:14.335Z,102184.84
2023-01-24T06:13:40.353Z,102189.63
2023-01-24T06:16:46.133Z,102188.66
2023-01-24T06:19:51.111Z,102189.53
2023-01-24T06:23:04.547Z,102200.63
2023-01-24T06:26:12.300Z,102198.03
2023-01-24T06:29:15.550Z,102200.16
2023-01-24T06:32:48.159Z,102210.66
2023-01-24T06:35:56.838Z,102220.19
2023-01-24T06:39:08.713Z,102216.03
2023-01-24T06:42:15.179Z,102230.09
2023-01-24T06:45:18.059Z,102235.09
2023-01-24T06:48:21.094Z,102231.53
2023-01-24T06:51:24.187Z,102242.03
2023-01-24T06:54:27.102Z,102248.22
2023-01-24T06:57:29.885Z,102252.28
2023-01-24T07:00:32.939Z,102252.41
2023-01-24T07:03:41.921Z,102259.31
2023-01-24T07:06:45.755Z,102264.34
2023-01-24T07:09:48.919Z,102265.28
2023-01-24T07:12:55.477Z,102265.38
2023-01-24T07:16:02.816Z,102267.31
2023-01-24T07:19:08.794Z,102269.69
2023-01-24T07:22:13.307Z,102269.19
2023-01-24T07:25:19.757Z,102273.50
2023-01-24T07:28:22.630Z,102271.59
2023-01-24T07:31:25.912Z,102267.03
2023-01-24T07:34:30.748Z,102257.72
2023-01-24T07:37:34.090Z,102274.63
2023-01-24T07:40:38.098Z,102273.66
2023-01-24T07:43:41.085Z,102278.88
2023-01-24T07:46:43.975Z,102290.78
2023-01-24T07:49:46.921Z,102286.81
2023-01-24T07:52:54.238Z,102284.13
2023-01-24T07:56:02.643Z,102284.63
2023-01-24T07:59:06.055Z,102297.22
2023-01-24T08:02:12.245Z,102286.25
2023-01-24T08:05:15.151Z,102293.72
2023-01-24T08:08:18.202Z,102299.03
2023-01-24T08:11:21.204Z,102297.38
2023-01-24T08:14:24.293Z,102308.28
2023-01-24T08:17:27.203Z,102301.09
2023-01-24T08:20:32.758Z,102306.25
2023-01-24T08:23:35.554Z,102306.75
2023-01-24T08:26:38.339Z,102307.78
2023-01-24T08:29:41.196Z,102307.97
2023-01-24T08:32:44.193Z,102313.19
2023-01-24T08:35:49.844Z,102314.91
2023-01-24T08:39:05.402Z,102313.56
2023-01-24T08:42:12.579Z,102319.53
2023-01-24T08:45:15.391Z,102322.00
2023-01-24T08:48:18.147Z,102324.84
2023-01-24T08:51:26.081Z,102319.31
2023-01-24T08:54:30.272Z,102326.69
2023-01-24T08:57:33.282Z,102320.06
2023-01-24T09:00:36.987Z,102320.06
2023-01-24T09:03:39.781Z,102320.00
2023-01-24T09:06:48.242Z,102328.00
2023-01-24T09:09:51.228Z,102321.91
2023-01-24T09:12:54.123Z,102320.84
2023-01-24T09:15:59.616Z,102322.34
2023-01-24T09:19:04.272Z,102326.31
2023-01-24T09:22:12.398Z,102321.41
2023-01-24T09:25:26.443Z,102332.56
2023-01-24T09:28:51.871Z,102305.84
2023-01-24T09:31:56.640Z,102325.66
2023-01-24T09:34:59.458Z,102319.44
2023-01-24T09:38:02.280Z,102314.94
2023-01-24T09:41:11.218Z,102325.38
2023-01-24T09:44:16.900Z,102326.81
2023-01-24T09:47:43.652Z,102331.28
2023-01-24T09:50:56.102Z,102335.28
2023-01-24T09:54:03.847Z,102323.41
2023-01-24T09:57:28.455Z,102312.63
2023-01-24T10:00:40.703Z,102318.59
2023-01-24T10:03:43.538Z,102319.75
2023-01-24T10:07:22.137Z,102325.22
2023-01-24T10:10:46.307Z,102322.38
2023-01-24T10:18:47.430Z,102310.47
2023-01-24T10:22:09.075Z,102306.53
2023-01-24T10:25:19.983Z,102303.03
2023-01-24T10:28:28.725Z,102300.91
2023-01-24T10:31:38.797Z,102292.91
2023-01-24T10:34:44.477Z,102305.19
2023-01-24T10:37:56.821Z,102291.81
2023-01-24T10:42:16.886Z,102292.94
2023-01-24T10:50:05.823Z,102288.63
2023-01-24T10:53:30.807Z,102289.63
2023-01-24T10:56:40.731Z,102279.38
2023-01-24T11:00:17.083Z,102275.28
2023-01-24T11:03:23.915Z,102275.97
2023-01-24T11:06:29.542Z,102266.84
2023-01-24T11:09:35.642Z,102264.63
2023-01-24T11:12:54.417Z,102269.34
2023-01-24T11:16:05.319Z,102275.03
2023-01-24T11:19:25.758Z,102264.69
2023-01-24T11:22:36.109Z,102261.50
2023-01-24T11:25:55.637Z,102260.47
2023-01-24T11:29:20.665Z,102258.84
2023-01-24T11:32:55.747Z,102255.13
2023-01-24T11:36:10.667Z,102255.44
2023-01-24T11:39:48.532Z,102246.34
2023-01-24T11:42:58.146Z,102247.47
2023-01-24T11:46:27.443Z,102244.78
2023-01-24T11:49:52.829Z,102240.94
2023-01-24T11:53:20.348Z,102240.78
2023-01-24T11:56:35.168Z,102229.53
2023-01-24T11:59:46.704Z,102242.97
2023-01-24T12:02:55.427Z,102237.00
2023-01-24T12:06:03.362Z,102238.44
2023-01-24T12:09:26.696Z,102238.19
2023-01-24T12:13:01.753Z,102238.75
2023-01-24T12:16:48.981Z,102247.09
2023-01-24T12:20:28.942Z,102245.41
2023-01-24T12:24:04.756Z,102250.09
2023-01-24T12:27:16.136Z,102251.94
2023-01-24T12:30:59.665Z,102264.81
2023-01-24T12:34:21.905Z,102264.69
2023-01-24T12:38:07.860Z,102262.88
2023-01-24T12:41:22.817Z,102247.88
2023-01-24T12:44:40.264Z,102247.63
2023-01-24T12:47:54.681Z,102262.31
2023-01-24T12:51:00.962Z,102269.13
2023-01-24T12:54:33.697Z,102259.56
2023-01-24T12:57:45.628Z,102263.31
2023-01-24T13:00:54.028Z,102268.53
2023-01-24T13:04:26.564Z,102274.38
2023-01-24T13:07:45.469Z,102260.25
2023-01-24T13:11:10.715Z,102269.22
2023-01-24T13:14:49.528Z,102265.91
2023-01-24T13:18:14.060Z,102257.63
2023-01-24T13:21:35.534Z,102264.81
2023-01-24T13:25:03.325Z,102263.28
2023-01-24T13:28:30.668Z,102271.63
2023-01-24T13:31:47.953Z,102259.53
2023-01-24T13:34:56.757Z,102261.78
2023-01-24T13:38:16.457Z,102265.78
2023-01-24T13:41:25.501Z,102269.09
2023-01-24T13:44:31.327Z,102262.34
2023-01-24T13:47:37.218Z,102268.16
2023-01-24T13:50:40.796Z,102268.03
2023-01-24T13:54:00.282Z,102276.16
2023-01-24T13:57:23.159Z,102274.31
2023-01-24T14:00:28.891Z,102265.59
2023-01-24T14:03:34.928Z,102264.94
2023-01-24T14:06:58.356Z,102276.69
2023-01-24T14:10:03.379Z,102269.06
2023-01-24T14:13:27.085Z,102258.66
2023-01-24T14:16:32.600Z,102257.75
2023-01-24T14:19:38.589Z,102257.00
2023-01-24T14:22:47.064Z,102273.88
2023-01-24T14:25:58.005Z,102276.13
2023-01-24T14:29:14.085Z,102274.88
2023-01-24T14:32:28.258Z,102272.22
2023-01-24T14:35:34.857Z,102267.09
2023-01-24T14:38:37.878Z,102277.59
2023-01-24T14:41:42.248Z,102289.06
2023-01-24T14:44:51.772Z,102268.19
2023-01-24T14:47:55.525Z,102281.47
2023-01-24T14:51:04.577Z,102283.50
2023-01-24T14:54:21.077Z,102282.81
2023-01-24T14:57:29.655Z,102267.84
2023-01-24T15:00:32.510Z,102279.31
2023-01-24T15:03:36.753Z,102284.00
2023-01-24T15:06:39.441Z,102291.59
2023-01-24T15:09:42.911Z,102298.34
2023-01-24T15:12:45.733Z,102294.47
2023-01-24T15:15:48.696Z,102292.84
2023-01-24T15:19:02.857Z,102297.66
2023-01-24T15:22:05.760Z,102304.34
2023-01-24T15:25:32.517Z,102289.66
2023-01-24T15:28:37.119Z,102289.66
2023-01-24T15:31:49.915Z,102285.31
2023-01-24T15:34:52.843Z,102294.56
2023-01-24T15:38:30.297Z,102307.72
2023-01-24T15:41:56.346Z,102295.66
2023-01-24T15:44:59.185Z,102291.44
2023-01-24T15:48:22.537Z,102297.47
2023-01-24T15:51:44.831Z,102301.75
2023-01-24T15:54:57.221Z,102306.44
2023-01-24T15:58:00.039Z,102315.19
2023-01-24T16:01:04.091Z,102302.84
2023-01-24T16:04:18.477Z,102301.31
2023-01-24T16:07:21.885Z,102303.84
2023-01-24T16:10:26.478Z,102300.28
2023-01-24T16:13:38.742Z,102310.88
2023-01-24T16:16:42.009Z,102301.69
2023-01-24T16:19:45.450Z,102313.78
2023-01-24T16:22:48.654Z,102317.66
2023-01-24T16:25:55.083Z,102309.59
2023-01-24T16:28:57.976Z,102310.31
2023-01-24T16:32:00.998Z,102320.38
2023-01-24T16:35:04.076Z,102309.72
2023-01-24T16:38:06.892Z,102306.75
2023-01-24T16:41:10.419Z,102306.69
2023-01-24T16:44:14.492Z,102328.16
2023-01-24T16:47:17.378Z,102331.34
2023-01-24T16:50:20.894Z,102326.19
2023-01-24T16:53:24.011Z,102326.19
2023-01-24T16:56:26.842Z,102331.72
2023-01-24T16:59:29.618Z,102340.38
2023-01-24T17:02:32.794Z,102337.28
2023-01-24T17:05:40.421Z,102335.47
2023-01-24T17:08:43.483Z,102340.38
2023-01-24T17:11:46.574Z,102345.63
2023-01-24T17:14:49.464Z,102353.22
2023-01-24T17:17:52.296Z,102352.97
2023-01-24T17:20:56.060Z,102349.75
2023-01-24T17:23:58.993Z,102351.00
2023-01-24T17:27:01.998Z,102365.97
2023-01-24T17:30:06.173Z,102354.66
2023-01-24T17:33:10.569Z,102359.25
2023-01-24T17:36:15.208Z,102359.53
2023-01-24T17:39:19.481Z,102361.22
2023-01-24T17:42:22.580Z,102368.44
2023-01-24T17:45:25.720Z,102363.75
2023-01-24T17:48:30.209Z,102362.56
2023-01-24T17:51:37.311Z,102369.19
2023-01-24T17:54:40.196Z,102369.66
2023-01-24T17:57:43.865Z,102366.59
2023-01-24T18:00:47.113Z,102366.47
2023-01-24T18:03:49.961Z,102368.28
2023-01-24T18:06:52.909Z,102356.72
2023-01-24T18:09:56.152Z,102363.66
2023-01-24T18:12:59.915Z,102354.25
2023-01-24T18:16:04.748Z,102367.25
2023-01-24T18:19:07.643Z,102363.31
2023-01-24T18:22:10.829Z,102355.13
2023-01-24T18:25:13.960Z,102361.16
2023-01-24T18:28:16.886Z,102361.22
2023-01-24T18:31:20.627Z,102362.72
2023-01-24T18:34:25.154Z,102368.53
2023-01-24T18:37:28.256Z,102363.09
2023-01-24T18:40:31.585Z,102361.78
2023-01-24T18:43:37.406Z,102359.34
2023-01-24T18:46:40.466Z,102363.78
2023-01-24T18:49:46.976Z,102370.72
2023-01-24T18:52:56.922Z,102358.66
2023-01-24T18:56:01.351Z,102364.94
2023-01-24T18:59:04.365Z,102369.28
2023-01-24T19:02:10.362Z,102357.31
2023-01-24T19:05:14.423Z,102360.91
2023-01-24T19:08:17.891Z,102353.44
2023-01-24T19:11:20.874Z,102363.19
2023-01-24T19:14:25.043Z,102366.94
2023-01-24T19:17:28.578Z,102360.97
2023-01-24T19:20:35.133Z,102357.78
2023-01-24T19:23:39.951Z,102360.13
2023-01-24T19:26:43.197Z,102367.03
2023-01-24T19:29:46.384Z,102370.78
2023-01-24T19:32:49.764Z,102361.53
2023-01-24T19:35:52.891Z,102365.50
2023-01-24T19:38:58.292Z,102369.66
2023-01-24T19:42:01.999Z,102368.59
2023-01-24T19:45:06.266Z,102358.28
2023-01-24T19:48:12.657Z,102376.53
2023-01-24T19:51:15.763Z,102369.97
2023-01-24T19:54:18.910Z,102372.91
2023-01-24T19:57:23.725Z,102373.88
2023-01-24T20:00:27.658Z,102381.81
2023-01-24T20:03:30.717Z,102378.91
2023-01-24T20:06:34.617Z,102382.91
2023-01-24T20:09:37.685Z,102381.16
2023-01-24T20:12:42.808Z,102385.44
2023-01-24T20:15:45.891Z,102381.00
2023-01-24T20:18:53.556Z,102380.13
2023-01-24T20:22:00.200Z,102381.22
2023-01-24T20:25:17.691Z,102388.94
2023-01-24T20:28:22.236Z,102388.38
2023-01-24T20:31:28.025Z,102385.78
2023-01-24T20:34:31.441Z,102386.56
2023-01-24T20:37:36.135Z,102380.84
2023-01-24T20:40:42.152Z,102382.13
2023-01-24T20:43:46.610Z,102384.91
2023-01-24T20:46:49.694Z,102396.03
2023-01-24T20:49:52.635Z,102395.00
2023-01-24T20:52:55.865Z,102388.69
2023-01-24T20:56:01.380Z,102393.16
2023-01-24T20:59:05.132Z,102394.00
2023-01-24T21:02:09.816Z,102395.25
2023-01-24T21:05:12.586Z,102390.59
2023-01-24T21:08:15.590Z,102388.53
2023-01-24T21:11:21.829Z,102392.47
2023-01-24T21:14:24.761Z,102388.94
2023-01-24T21:17:31.474Z,102403.41
2023-01-24T21:20:35.634Z,102392.84
2023-01-24T21:23:38.720Z,102400.19
2023-01-24T21:26:42.583Z,102392.16
2023-01-24T21:29:45.587Z,102389.53
2023-01-24T21:32:48.413Z,102391.63
2023-01-24T21:36:02.128Z,102390.22
2023-01-24T21:39:07.620Z,102391.06
2023-01-24T21:42:10.488Z,102377.06
2023-01-24T21:45:13.298Z,102383.28
2023-01-24T21:48:16.120Z,102385.28
2023-01-24T21:51:19.075Z,102383.41
2023-01-24T21:54:27.262Z,102387.44
2023-01-24T21:57:48.353Z,102380.63
2023-01-24T22:00:51.262Z,102379.22
2023-01-24T22:03:54.030Z,102377.75
2023-01-24T22:06:57.092Z,102379.38
2023-01-24T22:10:01.014Z,102377.22
2023-01-24T22:13:04.014Z,102369.97
2023-01-24T22:16:14.751Z,102373.19
2023-01-24T22:19:21.568Z,102371.88
2023-01-24T22:22:27.500Z,102375.69
2023-01-24T22:26:09.607Z,102378.63
2023-01-24T22:29:13.967Z,102374.94
2023-01-24T22:32:19.022Z,102371.56
2023-01-24T22:35:25.099Z,102362.09
2023-01-24T22:38:28.623Z,102355.50
2023-01-24T22:41:31.395Z,102358.59
2023-01-24T22:44:35.105Z,102358.72
2023-01-24T22:47:37.980Z,102368.53
2023-01-24T22:50:41.914Z,102363.31
2023-01-24T22:53:44.830Z,102363.28
2023-01-24T22:56:47.686Z,102359.59
2023-01-24T22:59:50.814Z,102356.38
2023-01-24T23:02:53.851Z,102351.94
2023-01-24T23:06:08.158Z,102346.47
2023-01-24T23:09:11.686Z,102344.47
2023-01-24T23:12:33.067Z,102341.06
2023-01-24T23:15:54.392Z,102331.13
2023-01-24T23:19:18.667Z,102339.66
2023-01-24T23:22:24.242Z,102333.06
2023-01-24T23:25:27.547Z,102334.47
2023-01-24T23:28:32.946Z,102340.25
2023-01-24T23:31:35.948Z,102325.25
2023-01-24T23:34:41.310Z,102345.75
2023-01-24T23:37:44.146Z,102332.53
2023-01-24T23:40:47.136Z,102326.94
2023-01-24T23:43:50.430Z,102328.72
2023-01-24T23:46:53.299Z,102323.19
2023-01-24T23:49:56.167Z,102326.91
2023-01-24T23:52:59.254Z,102320.38
2023-01-24T23:56:02.572Z,102328.13
2023-01-24T23:59:10.562Z,102324.19
